sensor_id;sensor_type;location;lat;lon;timestamp;P1;durP1;ratioP1;P2;durP2;ratioP2
31734;SDS011;18313;48.518;9.124;2023-03-01T00:01:28;25.98;;;14.40;;
31734;SDS011;18313;48.518;9.124;2023-03-01T00:03:57;27.33;;;14.82;;
31734;SDS011;18313;48.518;9.124;2023-03-01T00:06:25;29.20;;;14.98;;
31734;SDS011;18313;48.518;9.124;2023-03-01T00:08:53;26.58;;;13.95;;
31734;SDS011;18313;48.518;9.124;2023-03-01T00:11:22;24.92;;;14.80;;
31734;SDS011;18313;48.518;9.124;2023-03-01T00:13:53;28.27;;;16.40;;
31734;SDS011;18313;48.518;9.124;2023-03-01T00:16:24;28.40;;;15.32;;
31734;SDS011;18313;48.518;9.124;2023-03-01T00:18:54;29.33;;;15.70;;
31734;SDS011;18313;48.518;9.124;2023-03-01T00:21:22;25.17;;;14.20;;
31734;SDS011;18313;48.518;9.124;2023-03-01T00:23:50;27.40;;;15.85;;
31734;SDS011;18313;48.518;9.124;2023-03-01T00:26:18;26.02;;;14.82;;
31734;SDS011;18313;48.518;9.124;2023-03-01T00:28:46;29.48;;;15.30;;
31734;SDS011;18313;48.518;9.124;2023-03-01T00:31:18;28.08;;;15.20;;
31734;SDS011;18313;48.518;9.124;2023-03-01T00:33:47;28.30;;;14.77;;
31734;SDS011;18313;48.518;9.124;2023-03-01T00:36:14;29.15;;;16.52;;
31734;SDS011;18313;48.518;9.124;2023-03-01T00:38:43;27.58;;;16.08;;
31734;SDS011;18313;48.518;9.124;2023-03-01T00:41:15;26.98;;;15.43;;
31734;SDS011;18313;48.518;9.124;2023-03-01T00:43:43;28.00;;;15.30;;
31734;SDS011;18313;48.518;9.124;2023-03-01T00:46:12;28.63;;;15.18;;
31734;SDS011;18313;48.518;9.124;2023-03-01T00:48:42;26.20;;;14.98;;
31734;SDS011;18313;48.518;9.124;2023-03-01T00:51:10;28.50;;;15.05;;
31734;SDS011;18313;48.518;9.124;2023-03-01T00:53:42;24.90;;;14.23;;
31734;SDS011;18313;48.518;9.124;2023-03-01T00:56:11;26.60;;;14.50;;
31734;SDS011;18313;48.518;9.124;2023-03-01T00:58:38;29.42;;;14.90;;
31734;SDS011;18313;48.518;9.124;2023-03-01T01:01:16;24.15;;;13.70;;
31734;SDS011;18313;48.518;9.124;2023-03-01T01:06:23;22.83;;;13.57;;
31734;SDS011;18313;48.518;9.124;2023-03-01T01:08:56;26.98;;;13.88;;
31734;SDS011;18313;48.518;9.124;2023-03-01T01:11:24;27.40;;;14.23;;
31734;SDS011;18313;48.518;9.124;2023-03-01T01:13:53;25.60;;;13.65;;
31734;SDS011;18313;48.518;9.124;2023-03-01T01:16:21;26.88;;;13.95;;
31734;SDS011;18313;48.518;9.124;2023-03-01T01:18:50;28.83;;;14.45;;
31734;SDS011;18313;48.518;9.124;2023-03-01T01:21:19;28.08;;;14.13;;
31734;SDS011;18313;48.518;9.124;2023-03-01T01:23:48;27.48;;;14.57;;
31734;SDS011;18313;48.518;9.124;2023-03-01T01:26:17;23.85;;;14.40;;
31734;SDS011;18313;48.518;9.124;2023-03-01T01:28:56;24.80;;;14.07;;
31734;SDS011;18313;48.518;9.124;2023-03-01T01:31:24;25.35;;;14.20;;
31734;SDS011;18313;48.518;9.124;2023-03-01T01:33:52;31.23;;;14.65;;
31734;SDS011;18313;48.518;9.124;2023-03-01T01:36:20;28.27;;;14.50;;
31734;SDS011;18313;48.518;9.124;2023-03-01T01:38:47;29.48;;;15.20;;
31734;SDS011;18313;48.518;9.124;2023-03-01T01:41:15;26.77;;;14.15;;
31734;SDS011;18313;48.518;9.124;2023-03-01T01:43:46;23.55;;;12.20;;
31734;SDS011;18313;48.518;9.124;2023-03-01T01:46:21;27.85;;;14.40;;
31734;SDS011;18313;48.518;9.124;2023-03-01T01:48:57;23.80;;;13.05;;
31734;SDS011;18313;48.518;9.124;2023-03-01T01:51:37;27.45;;;13.20;;
31734;SDS011;18313;48.518;9.124;2023-03-01T01:54:12;23.88;;;13.70;;
31734;SDS011;18313;48.518;9.124;2023-03-01T01:56:47;27.02;;;13.82;;
31734;SDS011;18313;48.518;9.124;2023-03-01T01:59:18;26.08;;;14.60;;
31734;SDS011;18313;48.518;9.124;2023-03-01T02:01:45;25.67;;;14.55;;
31734;SDS011;18313;48.518;9.124;2023-03-01T02:04:13;27.40;;;14.88;;
31734;SDS011;18313;48.518;9.124;2023-03-01T02:06:41;25.08;;;14.38;;
31734;SDS011;18313;48.518;9.124;2023-03-01T02:09:17;29.80;;;14.23;;
31734;SDS011;18313;48.518;9.124;2023-03-01T02:11:47;25.98;;;13.20;;
31734;SDS011;18313;48.518;9.124;2023-03-01T02:14:15;25.00;;;13.75;;
31734;SDS011;18313;48.518;9.124;2023-03-01T02:16:42;27.38;;;14.43;;
31734;SDS011;18313;48.518;9.124;2023-03-01T02:19:12;25.50;;;15.38;;
31734;SDS011;18313;48.518;9.124;2023-03-01T02:21:57;25.58;;;14.10;;
31734;SDS011;18313;48.518;9.124;2023-03-01T02:24:42;29.50;;;14.07;;
31734;SDS011;18313;48.518;9.124;2023-03-01T02:27:37;28.60;;;13.85;;
31734;SDS011;18313;48.518;9.124;2023-03-01T02:30:10;28.02;;;15.27;;
31734;SDS011;18313;48.518;9.124;2023-03-01T02:32:39;24.58;;;12.57;;
31734;SDS011;18313;48.518;9.124;2023-03-01T02:35:09;28.27;;;13.82;;
31734;SDS011;18313;48.518;9.124;2023-03-01T02:37:39;26.38;;;13.68;;
31734;SDS011;18313;48.518;9.124;2023-03-01T02:40:09;29.20;;;14.90;;
31734;SDS011;18313;48.518;9.124;2023-03-01T02:42:47;27.35;;;15.02;;
31734;SDS011;18313;48.518;9.124;2023-03-01T02:45:20;27.20;;;14.95;;
31734;SDS011;18313;48.518;9.124;2023-03-01T02:47:47;30.95;;;15.40;;
31734;SDS011;18313;48.518;9.124;2023-03-01T02:52:57;27.98;;;15.27;;
31734;SDS011;18313;48.518;9.124;2023-03-01T02:55:34;31.95;;;14.18;;
31734;SDS011;18313;48.518;9.124;2023-03-01T02:58:02;30.45;;;16.35;;
31734;SDS011;18313;48.518;9.124;2023-03-01T03:00:32;29.15;;;14.73;;
31734;SDS011;18313;48.518;9.124;2023-03-01T03:03:18;28.75;;;15.10;;
31734;SDS011;18313;48.518;9.124;2023-03-01T03:05:47;29.55;;;14.68;;
31734;SDS011;18313;48.518;9.124;2023-03-01T03:08:14;26.55;;;14.00;;
31734;SDS011;18313;48.518;9.124;2023-03-01T03:10:50;29.23;;;15.15;;
31734;SDS011;18313;48.518;9.124;2023-03-01T03:13:17;29.85;;;15.88;;
31734;SDS011;18313;48.518;9.124;2023-03-01T03:15:45;28.33;;;14.32;;
31734;SDS011;18313;48.518;9.124;2023-03-01T03:18:13;29.92;;;14.77;;
31734;SDS011;18313;48.518;9.124;2023-03-01T03:20:42;32.42;;;15.15;;
31734;SDS011;18313;48.518;9.124;2023-03-01T03:23:10;27.17;;;13.68;;
31734;SDS011;18313;48.518;9.124;2023-03-01T03:25:37;29.25;;;15.57;;
31734;SDS011;18313;48.518;9.124;2023-03-01T03:28:05;29.73;;;16.15;;
31734;SDS011;18313;48.518;9.124;2023-03-01T03:30:39;24.42;;;13.55;;
31734;SDS011;18313;48.518;9.124;2023-03-01T03:33:07;27.45;;;15.23;;
31734;SDS011;18313;48.518;9.124;2023-03-01T03:35:40;28.45;;;15.00;;
31734;SDS011;18313;48.518;9.124;2023-03-01T03:38:14;25.73;;;12.45;;
31734;SDS011;18313;48.518;9.124;2023-03-01T03:40:44;29.35;;;15.48;;
31734;SDS011;18313;48.518;9.124;2023-03-01T03:43:16;23.55;;;12.38;;
31734;SDS011;18313;48.518;9.124;2023-03-01T03:45:46;27.23;;;14.65;;
31734;SDS011;18313;48.518;9.124;2023-03-01T03:48:15;28.55;;;14.80;;
31734;SDS011;18313;48.518;9.124;2023-03-01T03:50:46;27.73;;;14.55;;
31734;SDS011;18313;48.518;9.124;2023-03-01T03:53:15;27.15;;;13.13;;
31734;SDS011;18313;48.518;9.124;2023-03-01T03:55:42;28.08;;;15.27;;
31734;SDS011;18313;48.518;9.124;2023-03-01T03:58:11;28.88;;;13.50;;
31734;SDS011;18313;48.518;9.124;2023-03-01T04:00:39;29.95;;;15.88;;
31734;SDS011;18313;48.518;9.124;2023-03-01T04:03:08;31.52;;;16.60;;
31734;SDS011;18313;48.518;9.124;2023-03-01T04:05:36;31.08;;;16.15;;
31734;SDS011;18313;48.518;9.124;2023-03-01T04:08:03;32.05;;;16.08;;
31734;SDS011;18313;48.518;9.124;2023-03-01T04:10:35;28.65;;;15.77;;
31734;SDS011;18313;48.518;9.124;2023-03-01T04:13:13;28.88;;;15.55;;
31734;SDS011;18313;48.518;9.124;2023-03-01T04:15:42;30.08;;;16.10;;
31734;SDS011;18313;48.518;9.124;2023-03-01T04:18:11;31.95;;;16.35;;
31734;SDS011;18313;48.518;9.124;2023-03-01T04:20:40;29.73;;;15.40;;
31734;SDS011;18313;48.518;9.124;2023-03-01T04:23:09;24.80;;;13.57;;
31734;SDS011;18313;48.518;9.124;2023-03-01T04:25:40;26.02;;;12.80;;
31734;SDS011;18313;48.518;9.124;2023-03-01T04:28:22;32.00;;;15.73;;
31734;SDS011;18313;48.518;9.124;2023-03-01T04:30:54;31.30;;;16.23;;
31734;SDS011;18313;48.518;9.124;2023-03-01T04:33:23;34.10;;;15.57;;
31734;SDS011;18313;48.518;9.124;2023-03-01T04:35:51;33.80;;;15.68;;
31734;SDS011;18313;48.518;9.124;2023-03-01T04:38:19;31.75;;;15.43;;
31734;SDS011;18313;48.518;9.124;2023-03-01T04:40:47;30.92;;;16.65;;
31734;SDS011;18313;48.518;9.124;2023-03-01T04:43:15;30.60;;;16.63;;
31734;SDS011;18313;48.518;9.124;2023-03-01T04:45:42;28.40;;;14.50;;
31734;SDS011;18313;48.518;9.124;2023-03-01T04:48:10;29.23;;;15.65;;
31734;SDS011;18313;48.518;9.124;2023-03-01T04:50:37;31.10;;;17.05;;
31734;SDS011;18313;48.518;9.124;2023-03-01T04:53:04;28.20;;;13.55;;
31734;SDS011;18313;48.518;9.124;2023-03-01T04:55:31;30.20;;;17.13;;
31734;SDS011;18313;48.518;9.124;2023-03-01T04:57:58;30.45;;;16.55;;
31734;SDS011;18313;48.518;9.124;2023-03-01T05:00:25;30.27;;;16.23;;
31734;SDS011;18313;48.518;9.124;2023-03-01T05:02:54;25.40;;;14.45;;
31734;SDS011;18313;48.518;9.124;2023-03-01T05:07:54;32.88;;;18.05;;
31734;SDS011;18313;48.518;9.124;2023-03-01T05:10:23;32.25;;;16.48;;
31734;SDS011;18313;48.518;9.124;2023-03-01T05:12:51;30.15;;;16.15;;
31734;SDS011;18313;48.518;9.124;2023-03-01T05:15:21;30.92;;;16.42;;
31734;SDS011;18313;48.518;9.124;2023-03-01T05:17:48;28.23;;;15.27;;
31734;SDS011;18313;48.518;9.124;2023-03-01T05:20:16;29.60;;;14.43;;
31734;SDS011;18313;48.518;9.124;2023-03-01T05:22:43;35.15;;;17.77;;
31734;SDS011;18313;48.518;9.124;2023-03-01T05:25:10;33.00;;;16.88;;
31734;SDS011;18313;48.518;9.124;2023-03-01T05:27:37;28.70;;;15.02;;
31734;SDS011;18313;48.518;9.124;2023-03-01T05:30:05;30.55;;;14.23;;
31734;SDS011;18313;48.518;9.124;2023-03-01T05:32:40;30.08;;;15.63;;
31734;SDS011;18313;48.518;9.124;2023-03-01T05:35:10;31.77;;;15.85;;
31734;SDS011;18313;48.518;9.124;2023-03-01T05:37:43;30.80;;;16.25;;
31734;SDS011;18313;48.518;9.124;2023-03-01T05:40:12;32.97;;;16.42;;
31734;SDS011;18313;48.518;9.124;2023-03-01T05:42:48;25.13;;;12.77;;
31734;SDS011;18313;48.518;9.124;2023-03-01T05:45:18;28.88;;;16.55;;
31734;SDS011;18313;48.518;9.124;2023-03-01T05:47:46;31.05;;;17.33;;
31734;SDS011;18313;48.518;9.124;2023-03-01T05:50:15;34.83;;;17.60;;
31734;SDS011;18313;48.518;9.124;2023-03-01T05:52:48;35.08;;;15.77;;
31734;SDS011;18313;48.518;9.124;2023-03-01T05:55:17;31.17;;;17.23;;
31734;SDS011;18313;48.518;9.124;2023-03-01T05:57:45;31.02;;;15.77;;
31734;SDS011;18313;48.518;9.124;2023-03-01T06:00:13;28.73;;;15.55;;
31734;SDS011;18313;48.518;9.124;2023-03-01T06:02:41;34.40;;;17.50;;
31734;SDS011;18313;48.518;9.124;2023-03-01T06:05:09;33.00;;;16.38;;
31734;SDS011;18313;48.518;9.124;2023-03-01T06:07:37;33.58;;;16.55;;
31734;SDS011;18313;48.518;9.124;2023-03-01T06:10:05;29.88;;;16.08;;
31734;SDS011;18313;48.518;9.124;2023-03-01T06:12:34;35.20;;;19.60;;
31734;SDS011;18313;48.518;9.124;2023-03-01T06:15:03;31.77;;;15.75;;
31734;SDS011;18313;48.518;9.124;2023-03-01T06:17:31;30.05;;;15.95;;
31734;SDS011;18313;48.518;9.124;2023-03-01T06:20:04;33.55;;;18.00;;
31734;SDS011;18313;48.518;9.124;2023-03-01T06:22:33;32.80;;;17.95;;
31734;SDS011;18313;48.518;9.124;2023-03-01T06:25:00;36.47;;;15.95;;
31734;SDS011;18313;48.518;9.124;2023-03-01T06:27:27;31.25;;;15.93;;
31734;SDS011;18313;48.518;9.124;2023-03-01T06:29:54;29.80;;;14.60;;
31734;SDS011;18313;48.518;9.124;2023-03-01T06:32:21;38.47;;;17.77;;
31734;SDS011;18313;48.518;9.124;2023-03-01T06:34:48;34.97;;;18.00;;
31734;SDS011;18313;48.518;9.124;2023-03-01T06:37:16;29.63;;;17.73;;
31734;SDS011;18313;48.518;9.124;2023-03-01T06:39:43;31.65;;;16.23;;
31734;SDS011;18313;48.518;9.124;2023-03-01T06:42:10;32.13;;;17.33;;
31734;SDS011;18313;48.518;9.124;2023-03-01T06:44:37;32.70;;;17.10;;
31734;SDS011;18313;48.518;9.124;2023-03-01T06:47:04;34.17;;;18.17;;
31734;SDS011;18313;48.518;9.124;2023-03-01T06:49:31;34.80;;;17.95;;
31734;SDS011;18313;48.518;9.124;2023-03-01T06:51:58;33.38;;;16.70;;
31734;SDS011;18313;48.518;9.124;2023-03-01T06:54:25;35.53;;;18.08;;
31734;SDS011;18313;48.518;9.124;2023-03-01T06:56:53;28.25;;;15.75;;
31734;SDS011;18313;48.518;9.124;2023-03-01T06:59:20;34.38;;;18.55;;
31734;SDS011;18313;48.518;9.124;2023-03-01T07:01:47;37.90;;;18.27;;
31734;SDS011;18313;48.518;9.124;2023-03-01T07:04:14;32.78;;;18.00;;
31734;SDS011;18313;48.518;9.124;2023-03-01T07:06:41;33.25;;;18.20;;
31734;SDS011;18313;48.518;9.124;2023-03-01T07:09:09;34.33;;;17.80;;
31734;SDS011;18313;48.518;9.124;2023-03-01T07:11:36;34.88;;;17.77;;
31734;SDS011;18313;48.518;9.124;2023-03-01T07:14:03;29.20;;;14.65;;
31734;SDS011;18313;48.518;9.124;2023-03-01T07:16:31;30.90;;;16.98;;
31734;SDS011;18313;48.518;9.124;2023-03-01T07:18:59;34.58;;;18.23;;
31734;SDS011;18313;48.518;9.124;2023-03-01T07:21:26;34.13;;;17.48;;
31734;SDS011;18313;48.518;9.124;2023-03-01T07:23:53;32.75;;;17.00;;
31734;SDS011;18313;48.518;9.124;2023-03-01T07:26:20;29.10;;;15.15;;
31734;SDS011;18313;48.518;9.124;2023-03-01T07:28:49;36.67;;;18.75;;
31734;SDS011;18313;48.518;9.124;2023-03-01T07:31:16;38.35;;;19.63;;
31734;SDS011;18313;48.518;9.124;2023-03-01T07:33:42;31.35;;;16.80;;
31734;SDS011;18313;48.518;9.124;2023-03-01T07:36:11;35.00;;;17.85;;
31734;SDS011;18313;48.518;9.124;2023-03-01T07:38:38;35.83;;;17.73;;
31734;SDS011;18313;48.518;9.124;2023-03-01T07:41:05;32.35;;;15.18;;
31734;SDS011;18313;48.518;9.124;2023-03-01T07:43:33;32.25;;;18.20;;
31734;SDS011;18313;48.518;9.124;2023-03-01T07:46:01;34.42;;;18.20;;
31734;SDS011;18313;48.518;9.124;2023-03-01T07:48:29;36.50;;;19.60;;
31734;SDS011;18313;48.518;9.124;2023-03-01T07:50:58;34.85;;;16.90;;
31734;SDS011;18313;48.518;9.124;2023-03-01T07:53:26;38.70;;;19.05;;
31734;SDS011;18313;48.518;9.124;2023-03-01T07:56:07;32.92;;;18.88;;
31734;SDS011;18313;48.518;9.124;2023-03-01T07:58:40;32.05;;;17.73;;
31734;SDS011;18313;48.518;9.124;2023-03-01T08:01:10;33.42;;;18.17;;
31734;SDS011;18313;48.518;9.124;2023-03-01T08:03:38;34.63;;;17.88;;
31734;SDS011;18313;48.518;9.124;2023-03-01T08:06:07;33.10;;;17.42;;
31734;SDS011;18313;48.518;9.124;2023-03-01T08:08:36;30.75;;;15.27;;
31734;SDS011;18313;48.518;9.124;2023-03-01T08:11:04;31.88;;;17.85;;
31734;SDS011;18313;48.518;9.124;2023-03-01T08:13:33;34.78;;;18.92;;
31734;SDS011;18313;48.518;9.124;2023-03-01T08:16:04;30.40;;;16.35;;
31734;SDS011;18313;48.518;9.124;2023-03-01T08:18:39;32.53;;;17.58;;
31734;SDS011;18313;48.518;9.124;2023-03-01T08:21:11;30.85;;;15.20;;
31734;SDS011;18313;48.518;9.124;2023-03-01T08:23:39;35.00;;;17.17;;
31734;SDS011;18313;48.518;9.124;2023-03-01T08:26:10;33.00;;;17.92;;
31734;SDS011;18313;48.518;9.124;2023-03-01T08:28:42;30.30;;;17.02;;
31734;SDS011;18313;48.518;9.124;2023-03-01T08:34:00;31.90;;;17.35;;
31734;SDS011;18313;48.518;9.124;2023-03-01T08:36:29;35.17;;;18.35;;
31734;SDS011;18313;48.518;9.124;2023-03-01T08:38:59;33.03;;;17.77;;
31734;SDS011;18313;48.518;9.124;2023-03-01T08:41:26;35.05;;;18.58;;
31734;SDS011;18313;48.518;9.124;2023-03-01T08:43:54;34.45;;;18.55;;
31734;SDS011;18313;48.518;9.124;2023-03-01T08:46:29;34.45;;;19.95;;
31734;SDS011;18313;48.518;9.124;2023-03-01T08:49:00;30.48;;;16.90;;
31734;SDS011;18313;48.518;9.124;2023-03-01T08:51:38;33.38;;;17.92;;
31734;SDS011;18313;48.518;9.124;2023-03-01T08:54:06;33.80;;;17.40;;
31734;SDS011;18313;48.518;9.124;2023-03-01T08:56:37;34.80;;;17.60;;
31734;SDS011;18313;48.518;9.124;2023-03-01T08:59:04;30.90;;;17.23;;
31734;SDS011;18313;48.518;9.124;2023-03-01T09:01:32;31.73;;;16.20;;
31734;SDS011;18313;48.518;9.124;2023-03-01T09:03:59;29.40;;;16.13;;
31734;SDS011;18313;48.518;9.124;2023-03-01T09:06:26;34.60;;;17.77;;
31734;SDS011;18313;48.518;9.124;2023-03-01T09:08:53;24.33;;;13.88;;
31734;SDS011;18313;48.518;9.124;2023-03-01T09:11:21;31.05;;;18.05;;
31734;SDS011;18313;48.518;9.124;2023-03-01T09:13:49;29.70;;;16.50;;
31734;SDS011;18313;48.518;9.124;2023-03-01T09:16:17;25.27;;;13.68;;
31734;SDS011;18313;48.518;9.124;2023-03-01T09:18:48;32.88;;;18.75;;
31734;SDS011;18313;48.518;9.124;2023-03-01T09:21:19;27.55;;;14.30;;
31734;SDS011;18313;48.518;9.124;2023-03-01T09:24:04;26.70;;;15.45;;
31734;SDS011;18313;48.518;9.124;2023-03-01T09:26:31;26.25;;;15.07;;
31734;SDS011;18313;48.518;9.124;2023-03-01T09:28:59;29.48;;;15.60;;
31734;SDS011;18313;48.518;9.124;2023-03-01T09:31:26;28.35;;;15.50;;
31734;SDS011;18313;48.518;9.124;2023-03-01T09:33:53;32.45;;;18.38;;
31734;SDS011;18313;48.518;9.124;2023-03-01T09:36:22;32.05;;;18.27;;
31734;SDS011;18313;48.518;9.124;2023-03-01T09:38:51;31.00;;;17.00;;
31734;SDS011;18313;48.518;9.124;2023-03-01T09:41:42;28.05;;;16.90;;
31734;SDS011;18313;48.518;9.124;2023-03-01T09:47:22;33.40;;;18.08;;
31734;SDS011;18313;48.518;9.124;2023-03-01T09:52:48;31.15;;;17.33;;
31734;SDS011;18313;48.518;9.124;2023-03-01T09:55:26;31.27;;;17.80;;
31734;SDS011;18313;48.518;9.124;2023-03-01T09:58:00;27.63;;;16.17;;
31734;SDS011;18313;48.518;9.124;2023-03-01T10:00:44;30.27;;;17.33;;
31734;SDS011;18313;48.518;9.124;2023-03-01T10:05:59;29.98;;;17.13;;
31734;SDS011;18313;48.518;9.124;2023-03-01T10:11:39;30.88;;;17.48;;
31734;SDS011;18313;48.518;9.124;2023-03-01T10:17:03;36.80;;;17.23;;
31734;SDS011;18313;48.518;9.124;2023-03-01T10:19:40;31.63;;;16.52;;
31734;SDS011;18313;48.518;9.124;2023-03-01T10:24:58;23.27;;;13.20;;
31734;SDS011;18313;48.518;9.124;2023-03-01T10:27:29;30.33;;;18.80;;
31734;SDS011;18313;48.518;9.124;2023-03-01T10:32:43;28.55;;;15.88;;
31734;SDS011;18313;48.518;9.124;2023-03-01T10:35:24;29.10;;;16.13;;
31734;SDS011;18313;48.518;9.124;2023-03-01T10:38:12;33.55;;;17.25;;
31734;SDS011;18313;48.518;9.124;2023-03-01T10:40:59;30.77;;;17.33;;
31734;SDS011;18313;48.518;9.124;2023-03-01T10:43:48;28.15;;;16.95;;
31734;SDS011;18313;48.518;9.124;2023-03-01T10:49:12;27.95;;;17.08;;
31734;SDS011;18313;48.518;9.124;2023-03-01T10:51:42;35.17;;;18.17;;
31734;SDS011;18313;48.518;9.124;2023-03-01T10:54:20;27.83;;;16.80;;
31734;SDS011;18313;48.518;9.124;2023-03-01T10:56:55;29.27;;;16.98;;
31734;SDS011;18313;48.518;9.124;2023-03-01T10:59:28;27.58;;;17.25;;
31734;SDS011;18313;48.518;9.124;2023-03-01T11:07:46;26.65;;;15.40;;
31734;SDS011;18313;48.518;9.124;2023-03-01T11:10:19;27.95;;;15.65;;
31734;SDS011;18313;48.518;9.124;2023-03-01T11:12:48;30.17;;;15.55;;
31734;SDS011;18313;48.518;9.124;2023-03-01T11:15:21;28.98;;;17.17;;
31734;SDS011;18313;48.518;9.124;2023-03-01T11:17:50;26.50;;;16.13;;
31734;SDS011;18313;48.518;9.124;2023-03-01T11:20:32;27.63;;;15.45;;
31734;SDS011;18313;48.518;9.124;2023-03-01T11:23:12;24.55;;;15.10;;
31734;SDS011;18313;48.518;9.124;2023-03-01T11:25:44;23.45;;;13.27;;
31734;SDS011;18313;48.518;9.124;2023-03-01T11:28:17;25.90;;;15.32;;
31734;SDS011;18313;48.518;9.124;2023-03-01T11:30:51;24.52;;;15.45;;
31734;SDS011;18313;48.518;9.124;2023-03-01T11:38:55;24.05;;;12.50;;
31734;SDS011;18313;48.518;9.124;2023-03-01T11:41:25;21.17;;;12.20;;
31734;SDS011;18313;48.518;9.124;2023-03-01T11:44:03;24.55;;;14.73;;
31734;SDS011;18313;48.518;9.124;2023-03-01T11:46:37;24.30;;;14.35;;
31734;SDS011;18313;48.518;9.124;2023-03-01T11:55:12;22.98;;;14.32;;
31734;SDS011;18313;48.518;9.124;2023-03-01T12:00:40;25.05;;;15.38;;
31734;SDS011;18313;48.518;9.124;2023-03-01T12:05:53;23.80;;;14.73;;
31734;SDS011;18313;48.518;9.124;2023-03-01T12:11:25;23.75;;;14.65;;
31734;SDS011;18313;48.518;9.124;2023-03-01T12:14:29;26.77;;;14.83;;
31734;SDS011;18313;48.518;9.124;2023-03-01T12:28:48;23.38;;;14.85;;
31734;SDS011;18313;48.518;9.124;2023-03-01T12:31:36;22.58;;;13.30;;
31734;SDS011;18313;48.518;9.124;2023-03-01T12:50:25;23.80;;;14.05;;
31734;SDS011;18313;48.518;9.124;2023-03-01T12:53:01;18.48;;;10.00;;
31734;SDS011;18313;48.518;9.124;2023-03-01T12:55:32;25.92;;;14.88;;
31734;SDS011;18313;48.518;9.124;2023-03-01T13:09:23;24.33;;;13.45;;
31734;SDS011;18313;48.518;9.124;2023-03-01T13:11:51;19.90;;;11.85;;
31734;SDS011;18313;48.518;9.124;2023-03-01T13:16:52;20.40;;;12.32;;
31734;SDS011;18313;48.518;9.124;2023-03-01T13:19:21;21.63;;;13.40;;
31734;SDS011;18313;48.518;9.124;2023-03-01T13:21:51;20.42;;;12.25;;
31734;SDS011;18313;48.518;9.124;2023-03-01T13:24:29;24.92;;;13.15;;
31734;SDS011;18313;48.518;9.124;2023-03-01T13:32:19;23.60;;;11.95;;
31734;SDS011;18313;48.518;9.124;2023-03-01T13:37:30;23.08;;;13.27;;
31734;SDS011;18313;48.518;9.124;2023-03-01T13:40:01;24.02;;;14.00;;
31734;SDS011;18313;48.518;9.124;2023-03-01T13:45:00;22.60;;;13.65;;
31734;SDS011;18313;48.518;9.124;2023-03-01T13:47:28;23.52;;;13.82;;
31734;SDS011;18313;48.518;9.124;2023-03-01T13:49:56;21.63;;;12.90;;
31734;SDS011;18313;48.518;9.124;2023-03-01T13:52:31;22.77;;;14.15;;
31734;SDS011;18313;48.518;9.124;2023-03-01T13:55:17;23.77;;;13.35;;
31734;SDS011;18313;48.518;9.124;2023-03-01T13:57:53;23.45;;;14.27;;
31734;SDS011;18313;48.518;9.124;2023-03-01T14:00:25;23.58;;;14.43;;
31734;SDS011;18313;48.518;9.124;2023-03-01T14:03:27;20.98;;;12.65;;
31734;SDS011;18313;48.518;9.124;2023-03-01T14:06:00;22.15;;;13.40;;
31734;SDS011;18313;48.518;9.124;2023-03-01T14:08:46;22.17;;;13.50;;
31734;SDS011;18313;48.518;9.124;2023-03-01T14:19:25;23.27;;;13.05;;
31734;SDS011;18313;48.518;9.124;2023-03-01T14:22:17;25.00;;;13.50;;
31734;SDS011;18313;48.518;9.124;2023-03-01T14:24:58;27.80;;;13.77;;
31734;SDS011;18313;48.518;9.124;2023-03-01T14:27:28;22.85;;;14.43;;
31734;SDS011;18313;48.518;9.124;2023-03-01T14:30:00;23.48;;;14.88;;
31734;SDS011;18313;48.518;9.124;2023-03-01T14:32:30;24.08;;;12.73;;
31734;SDS011;18313;48.518;9.124;2023-03-01T14:34:59;22.63;;;12.15;;
31734;SDS011;18313;48.518;9.124;2023-03-01T14:37:28;26.35;;;14.27;;
31734;SDS011;18313;48.518;9.124;2023-03-01T14:39:56;22.20;;;12.35;;
31734;SDS011;18313;48.518;9.124;2023-03-01T14:42:27;22.42;;;14.35;;
31734;SDS011;18313;48.518;9.124;2023-03-01T14:44:57;23.70;;;12.35;;
31734;SDS011;18313;48.518;9.124;2023-03-01T14:47:29;21.10;;;13.50;;
31734;SDS011;18313;48.518;9.124;2023-03-01T14:50:21;22.25;;;13.93;;
31734;SDS011;18313;48.518;9.124;2023-03-01T14:53:20;23.55;;;13.43;;
31734;SDS011;18313;48.518;9.124;2023-03-01T14:55:51;20.48;;;13.07;;
31734;SDS011;18313;48.518;9.124;2023-03-01T14:58:22;20.33;;;13.18;;
31734;SDS011;18313;48.518;9.124;2023-03-01T15:00:55;20.02;;;12.90;;
31734;SDS011;18313;48.518;9.124;2023-03-01T15:03:31;24.58;;;11.65;;
31734;SDS011;18313;48.518;9.124;2023-03-01T15:06:05;26.08;;;13.50;;
31734;SDS011;18313;48.518;9.124;2023-03-01T15:08:35;23.98;;;12.57;;
31734;SDS011;18313;48.518;9.124;2023-03-01T15:11:05;22.45;;;12.80;;
31734;SDS011;18313;48.518;9.124;2023-03-01T15:13:52;19.83;;;12.20;;
31734;SDS011;18313;48.518;9.124;2023-03-01T15:16:20;20.83;;;13.05;;
31734;SDS011;18313;48.518;9.124;2023-03-01T15:18:55;21.25;;;13.13;;
31734;SDS011;18313;48.518;9.124;2023-03-01T15:21:29;23.02;;;12.63;;
31734;SDS011;18313;48.518;9.124;2023-03-01T15:26:50;23.75;;;12.75;;
31734;SDS011;18313;48.518;9.124;2023-03-01T15:29:25;22.60;;;13.77;;
31734;SDS011;18313;48.518;9.124;2023-03-01T15:34:26;25.88;;;13.60;;
31734;SDS011;18313;48.518;9.124;2023-03-01T15:36:57;22.58;;;13.30;;
31734;SDS011;18313;48.518;9.124;2023-03-01T15:41:57;26.38;;;13.68;;
31734;SDS011;18313;48.518;9.124;2023-03-01T15:44:32;25.63;;;12.73;;
31734;SDS011;18313;48.518;9.124;2023-03-01T15:47:22;30.25;;;13.80;;
31734;SDS011;18313;48.518;9.124;2023-03-01T15:49:52;23.65;;;13.38;;
31734;SDS011;18313;48.518;9.124;2023-03-01T15:52:36;22.77;;;13.88;;
31734;SDS011;18313;48.518;9.124;2023-03-01T15:55:20;21.70;;;13.43;;
31734;SDS011;18313;48.518;9.124;2023-03-01T16:00:47;23.00;;;12.05;;
31734;SDS011;18313;48.518;9.124;2023-03-01T16:03:26;26.40;;;14.52;;
31734;SDS011;18313;48.518;9.124;2023-03-01T16:05:53;19.20;;;11.23;;
31734;SDS011;18313;48.518;9.124;2023-03-01T16:08:20;22.20;;;13.13;;
31734;SDS011;18313;48.518;9.124;2023-03-01T16:10:48;21.42;;;13.48;;
31734;SDS011;18313;48.518;9.124;2023-03-01T16:13:17;25.17;;;14.77;;
31734;SDS011;18313;48.518;9.124;2023-03-01T16:15:44;21.13;;;12.18;;
31734;SDS011;18313;48.518;9.124;2023-03-01T16:18:11;23.20;;;13.95;;
31734;SDS011;18313;48.518;9.124;2023-03-01T16:20:39;25.38;;;14.38;;
31734;SDS011;18313;48.518;9.124;2023-03-01T16:23:07;25.05;;;12.98;;
31734;SDS011;18313;48.518;9.124;2023-03-01T16:25:38;21.67;;;12.55;;
31734;SDS011;18313;48.518;9.124;2023-03-01T16:28:06;22.63;;;13.52;;
31734;SDS011;18313;48.518;9.124;2023-03-01T16:30:37;21.77;;;13.55;;
31734;SDS011;18313;48.518;9.124;2023-03-01T16:33:06;26.63;;;13.88;;
31734;SDS011;18313;48.518;9.124;2023-03-01T16:35:50;23.08;;;13.25;;
31734;SDS011;18313;48.518;9.124;2023-03-01T16:38:17;21.25;;;13.45;;
31734;SDS011;18313;48.518;9.124;2023-03-01T16:40:48;23.23;;;13.35;;
31734;SDS011;18313;48.518;9.124;2023-03-01T16:43:16;22.10;;;12.80;;
31734;SDS011;18313;48.518;9.124;2023-03-01T16:45:43;25.60;;;15.48;;
31734;SDS011;18313;48.518;9.124;2023-03-01T16:48:12;23.75;;;13.40;;
31734;SDS011;18313;48.518;9.124;2023-03-01T16:50:39;22.85;;;13.80;;
31734;SDS011;18313;48.518;9.124;2023-03-01T16:53:06;22.95;;;13.93;;
31734;SDS011;18313;48.518;9.124;2023-03-01T16:55:33;24.98;;;14.75;;